sensor_id;sensor_type;location;lat;lon;timestamp;P1;durP1;ratioP1;P2;durP2;ratioP2
75007;SDS011;63554;48.940;12.050;2023-08-24T00:01:53;6.70;;;4.68;;
75007;SDS011;63554;48.940;12.050;2023-08-24T00:05:56;5.85;;;4.32;;
75007;SDS011;63554;48.940;12.050;2023-08-24T00:10:00;5.60;;;4.22;;
75007;SDS011;63554;48.940;12.050;2023-08-24T00:14:04;4.80;;;3.88;;
75007;SDS011;63554;48.940;12.050;2023-08-24T00:18:07;5.22;;;3.95;;
75007;SDS011;63554;48.940;12.050;2023-08-24T00:22:09;6.35;;;4.47;;
75007;SDS011;63554;48.940;12.050;2023-08-24T00:26:13;6.60;;;4.45;;
75007;SDS011;63554;48.940;12.050;2023-08-24T00:30:18;5.53;;;4.35;;
75007;SDS011;63554;48.940;12.050;2023-08-24T00:34:21;5.05;;;4.15;;
75007;SDS011;63554;48.940;12.050;2023-08-24T00:38:23;6.15;;;4.63;;
75007;SDS011;63554;48.940;12.050;2023-08-24T00:42:27;5.80;;;4.28;;
75007;SDS011;63554;48.940;12.050;2023-08-24T00:46:31;4.78;;;4.05;;
75007;SDS011;63554;48.940;12.050;2023-08-24T00:50:33;5.45;;;4.20;;
75007;SDS011;63554;48.940;12.050;2023-08-24T00:54:36;4.88;;;4.35;;
75007;SDS011;63554;48.940;12.050;2023-08-24T00:58:42;4.75;;;3.78;;
75007;SDS011;63554;48.940;12.050;2023-08-24T01:02:46;5.35;;;4.30;;
75007;SDS011;63554;48.940;12.050;2023-08-24T01:06:49;5.07;;;4.32;;
75007;SDS011;63554;48.940;12.050;2023-08-24T01:10:55;5.60;;;4.25;;
75007;SDS011;63554;48.940;12.050;2023-08-24T01:15:07;5.63;;;4.28;;
75007;SDS011;63554;48.940;12.050;2023-08-24T01:19:19;4.07;;;3.65;;
75007;SDS011;63554;48.940;12.050;2023-08-24T01:23:43;5.32;;;4.07;;
75007;SDS011;63554;48.940;12.050;2023-08-24T01:27:53;5.90;;;3.90;;
75007;SDS011;63554;48.940;12.050;2023-08-24T01:35:59;4.13;;;3.70;;
75007;SDS011;63554;48.940;12.050;2023-08-24T01:40:03;6.38;;;4.28;;
75007;SDS011;63554;48.940;12.050;2023-08-24T01:44:13;4.47;;;3.78;;
75007;SDS011;63554;48.940;12.050;2023-08-24T01:48:19;4.97;;;3.78;;
75007;SDS011;63554;48.940;12.050;2023-08-24T01:52:23;7.60;;;4.20;;
75007;SDS011;63554;48.940;12.050;2023-08-24T01:56:27;4.72;;;3.20;;
75007;SDS011;63554;48.940;12.050;2023-08-24T02:00:31;4.85;;;4.22;;
75007;SDS011;63554;48.940;12.050;2023-08-24T02:04:34;4.28;;;3.50;;
75007;SDS011;63554;48.940;12.050;2023-08-24T02:08:36;6.97;;;3.75;;
75007;SDS011;63554;48.940;12.050;2023-08-24T02:12:39;5.93;;;4.03;;
75007;SDS011;63554;48.940;12.050;2023-08-24T02:16:43;4.70;;;3.78;;
75007;SDS011;63554;48.940;12.050;2023-08-24T02:20:46;4.57;;;4.00;;
75007;SDS011;63554;48.940;12.050;2023-08-24T02:24:49;4.82;;;3.78;;
75007;SDS011;63554;48.940;12.050;2023-08-24T02:28:52;4.45;;;3.72;;
75007;SDS011;63554;48.940;12.050;2023-08-24T02:32:56;5.18;;;3.92;;
75007;SDS011;63554;48.940;12.050;2023-08-24T02:36:59;5.93;;;3.70;;
75007;SDS011;63554;48.940;12.050;2023-08-24T02:41:02;5.80;;;3.92;;
75007;SDS011;63554;48.940;12.050;2023-08-24T02:45:06;4.22;;;3.70;;
75007;SDS011;63554;48.940;12.050;2023-08-24T02:49:10;6.38;;;4.03;;
75007;SDS011;63554;48.940;12.050;2023-08-24T02:53:13;6.38;;;3.97;;
75007;SDS011;63554;48.940;12.050;2023-08-24T02:57:16;6.43;;;4.10;;
75007;SDS011;63554;48.940;12.050;2023-08-24T03:01:18;6.97;;;4.00;;
75007;SDS011;63554;48.940;12.050;2023-08-24T03:05:22;6.28;;;4.50;;
75007;SDS011;63554;48.940;12.050;2023-08-24T03:09:25;5.70;;;4.10;;
75007;SDS011;63554;48.940;12.050;2023-08-24T03:13:28;5.70;;;4.03;;
75007;SDS011;63554;48.940;12.050;2023-08-24T03:17:32;4.75;;;4.10;;
75007;SDS011;63554;48.940;12.050;2023-08-24T03:21:36;5.07;;;4.25;;
75007;SDS011;63554;48.940;12.050;2023-08-24T03:25:39;4.93;;;4.03;;
75007;SDS011;63554;48.940;12.050;2023-08-24T03:29:42;4.55;;;3.85;;
75007;SDS011;63554;48.940;12.050;2023-08-24T03:33:45;5.43;;;4.20;;
75007;SDS011;63554;48.940;12.050;2023-08-24T03:37:50;5.05;;;3.92;;
75007;SDS011;63554;48.940;12.050;2023-08-24T03:41:53;4.78;;;3.72;;
75007;SDS011;63554;48.940;12.050;2023-08-24T03:45:55;5.15;;;4.18;;
75007;SDS011;63554;48.940;12.050;2023-08-24T03:49:58;5.22;;;3.83;;
75007;SDS011;63554;48.940;12.050;2023-08-24T03:54:02;4.93;;;4.10;;
75007;SDS011;63554;48.940;12.050;2023-08-24T03:58:06;4.32;;;3.92;;
75007;SDS011;63554;48.940;12.050;2023-08-24T04:02:09;5.28;;;4.07;;
75007;SDS011;63554;48.940;12.050;2023-08-24T04:06:12;4.82;;;3.75;;
75007;SDS011;63554;48.940;12.050;2023-08-24T04:10:16;5.78;;;3.85;;
75007;SDS011;63554;48.940;12.050;2023-08-24T04:14:19;5.45;;;3.53;;
75007;SDS011;63554;48.940;12.050;2023-08-24T04:18:22;5.63;;;3.97;;
75007;SDS011;63554;48.940;12.050;2023-08-24T04:22:24;6.43;;;4.45;;
75007;SDS011;63554;48.940;12.050;2023-08-24T04:26:28;5.75;;;3.70;;
75007;SDS011;63554;48.940;12.050;2023-08-24T04:30:31;5.78;;;3.92;;
75007;SDS011;63554;48.940;12.050;2023-08-24T04:34:34;5.32;;;4.80;;
75007;SDS011;63554;48.940;12.050;2023-08-24T04:38:37;4.93;;;4.10;;
75007;SDS011;63554;48.940;12.050;2023-08-24T04:42:41;5.30;;;4.22;;
75007;SDS011;63554;48.940;12.050;2023-08-24T04:46:43;5.03;;;3.78;;
75007;SDS011;63554;48.940;12.050;2023-08-24T04:50:46;5.15;;;4.13;;
75007;SDS011;63554;48.940;12.050;2023-08-24T04:54:50;5.15;;;3.95;;
75007;SDS011;63554;48.940;12.050;2023-08-24T04:58:54;5.88;;;4.32;;
75007;SDS011;63554;48.940;12.050;2023-08-24T05:07:01;4.68;;;3.75;;
75007;SDS011;63554;48.940;12.050;2023-08-24T05:11:09;5.00;;;3.55;;
75007;SDS011;63554;48.940;12.050;2023-08-24T05:15:15;4.97;;;3.80;;
75007;SDS011;63554;48.940;12.050;2023-08-24T05:19:18;4.28;;;3.55;;
75007;SDS011;63554;48.940;12.050;2023-08-24T05:23:20;5.25;;;4.35;;
75007;SDS011;63554;48.940;12.050;2023-08-24T05:27:23;4.32;;;3.53;;
75007;SDS011;63554;48.940;12.050;2023-08-24T05:31:27;7.38;;;4.10;;
75007;SDS011;63554;48.940;12.050;2023-08-24T05:35:30;5.95;;;4.15;;
75007;SDS011;63554;48.940;12.050;2023-08-24T05:39:32;4.85;;;4.05;;
75007;SDS011;63554;48.940;12.050;2023-08-24T05:43:35;6.18;;;3.97;;
75007;SDS011;63554;48.940;12.050;2023-08-24T05:47:39;5.72;;;3.90;;
75007;SDS011;63554;48.940;12.050;2023-08-24T05:51:42;5.55;;;4.38;;
75007;SDS011;63554;48.940;12.050;2023-08-24T05:55:45;4.13;;;3.72;;
75007;SDS011;63554;48.940;12.050;2023-08-24T05:59:47;5.10;;;3.83;;
75007;SDS011;63554;48.940;12.050;2023-08-24T06:03:51;5.47;;;3.60;;
75007;SDS011;63554;48.940;12.050;2023-08-24T06:07:54;7.40;;;4.00;;
75007;SDS011;63554;48.940;12.050;2023-08-24T06:11:57;4.43;;;3.58;;
75007;SDS011;63554;48.940;12.050;2023-08-24T06:16:00;7.55;;;3.92;;
75007;SDS011;63554;48.940;12.050;2023-08-24T06:20:05;5.13;;;4.38;;
75007;SDS011;63554;48.940;12.050;2023-08-24T06:24:11;6.55;;;4.35;;
75007;SDS011;63554;48.940;12.050;2023-08-24T06:28:14;4.97;;;3.72;;
75007;SDS011;63554;48.940;12.050;2023-08-24T06:32:17;5.05;;;3.85;;
75007;SDS011;63554;48.940;12.050;2023-08-24T06:36:21;5.03;;;4.28;;
75007;SDS011;63554;48.940;12.050;2023-08-24T06:40:23;5.35;;;3.78;;
75007;SDS011;63554;48.940;12.050;2023-08-24T06:44:26;6.53;;;3.88;;
75007;SDS011;63554;48.940;12.050;2023-08-24T06:48:29;6.68;;;3.72;;
75007;SDS011;63554;48.940;12.050;2023-08-24T06:52:33;5.30;;;3.80;;
75007;SDS011;63554;48.940;12.050;2023-08-24T06:56:36;4.45;;;3.70;;
75007;SDS011;63554;48.940;12.050;2023-08-24T07:00:39;4.80;;;3.70;;
75007;SDS011;63554;48.940;12.050;2023-08-24T07:04:41;4.25;;;3.67;;
75007;SDS011;63554;48.940;12.050;2023-08-24T07:08:45;4.97;;;4.03;;
75007;SDS011;63554;48.940;12.050;2023-08-24T07:12:48;8.20;;;3.42;;
75007;SDS011;63554;48.940;12.050;2023-08-24T07:16:51;6.15;;;3.50;;
75007;SDS011;63554;48.940;12.050;2023-08-24T07:20:53;7.32;;;3.20;;
75007;SDS011;63554;48.940;12.050;2023-08-24T07:24:58;4.10;;;3.03;;
75007;SDS011;63554;48.940;12.050;2023-08-24T07:29:04;3.83;;;3.05;;
75007;SDS011;63554;48.940;12.050;2023-08-24T07:33:07;5.47;;;3.45;;
75007;SDS011;63554;48.940;12.050;2023-08-24T07:37:11;5.40;;;3.67;;
75007;SDS011;63554;48.940;12.050;2023-08-24T07:41:15;4.13;;;3.17;;
75007;SDS011;63554;48.940;12.050;2023-08-24T07:45:19;4.30;;;3.05;;
75007;SDS011;63554;48.940;12.050;2023-08-24T07:49:22;4.10;;;3.28;;
75007;SDS011;63554;48.940;12.050;2023-08-24T07:53:25;4.90;;;3.47;;
75007;SDS011;63554;48.940;12.050;2023-08-24T07:57:29;3.90;;;3.08;;
75007;SDS011;63554;48.940;12.050;2023-08-24T08:01:32;4.47;;;3.42;;
75007;SDS011;63554;48.940;12.050;2023-08-24T08:05:35;8.52;;;3.50;;
75007;SDS011;63554;48.940;12.050;2023-08-24T08:09:38;4.28;;;2.85;;
75007;SDS011;63554;48.940;12.050;2023-08-24T08:13:42;4.57;;;3.10;;
75007;SDS011;63554;48.940;12.050;2023-08-24T08:17:45;8.25;;;3.22;;
75007;SDS011;63554;48.940;12.050;2023-08-24T08:21:49;6.03;;;3.25;;
75007;SDS011;63554;48.940;12.050;2023-08-24T08:25:52;4.38;;;3.55;;
75007;SDS011;63554;48.940;12.050;2023-08-24T08:29:56;5.70;;;3.42;;
75007;SDS011;63554;48.940;12.050;2023-08-24T08:33:59;5.55;;;3.10;;
75007;SDS011;63554;48.940;12.050;2023-08-24T08:38:02;5.75;;;3.70;;
75007;SDS011;63554;48.940;12.050;2023-08-24T08:42:06;4.20;;;3.67;;
75007;SDS011;63554;48.940;12.050;2023-08-24T08:46:15;4.55;;;3.30;;
75007;SDS011;63554;48.940;12.050;2023-08-24T08:50:19;6.50;;;3.28;;
75007;SDS011;63554;48.940;12.050;2023-08-24T08:54:23;3.85;;;3.45;;
75007;SDS011;63554;48.940;12.050;2023-08-24T08:58:25;4.25;;;3.20;;
75007;SDS011;63554;48.940;12.050;2023-08-24T09:02:31;3.28;;;2.63;;
75007;SDS011;63554;48.940;12.050;2023-08-24T09:06:35;3.50;;;3.13;;
75007;SDS011;63554;48.940;12.050;2023-08-24T09:10:38;4.43;;;3.05;;
75007;SDS011;63554;48.940;12.050;2023-08-24T09:14:40;6.32;;;2.97;;
75007;SDS011;63554;48.940;12.050;2023-08-24T09:18:45;5.13;;;3.17;;
75007;SDS011;63554;48.940;12.050;2023-08-24T09:26:52;4.15;;;2.85;;
75007;SDS011;63554;48.940;12.050;2023-08-24T09:30:55;3.60;;;2.67;;
75007;SDS011;63554;48.940;12.050;2023-08-24T09:35:03;3.95;;;2.90;;
75007;SDS011;63554;48.940;12.050;2023-08-24T09:39:07;5.32;;;2.83;;
75007;SDS011;63554;48.940;12.050;2023-08-24T09:43:12;2.78;;;2.55;;
75007;SDS011;63554;48.940;12.050;2023-08-24T09:47:14;4.75;;;2.78;;
75007;SDS011;63554;48.940;12.050;2023-08-24T09:51:18;6.00;;;2.67;;
75007;SDS011;63554;48.940;12.050;2023-08-24T09:55:22;3.85;;;2.70;;
75007;SDS011;63554;48.940;12.050;2023-08-24T09:59:28;3.10;;;2.78;;
75007;SDS011;63554;48.940;12.050;2023-08-24T10:03:33;4.65;;;2.47;;
75007;SDS011;63554;48.940;12.050;2023-08-24T10:07:40;3.03;;;2.35;;
75007;SDS011;63554;48.940;12.050;2023-08-24T10:11:46;5.97;;;2.30;;
75007;SDS011;63554;48.940;12.050;2023-08-24T10:19:58;2.60;;;2.33;;
75007;SDS011;63554;48.940;12.050;2023-08-24T10:24:06;3.70;;;2.53;;
75007;SDS011;63554;48.940;12.050;2023-08-24T10:28:11;4.05;;;2.38;;
75007;SDS011;63554;48.940;12.050;2023-08-24T10:32:14;3.58;;;2.83;;
75007;SDS011;63554;48.940;12.050;2023-08-24T10:36:17;3.00;;;2.45;;
75007;SDS011;63554;48.940;12.050;2023-08-24T10:40:32;2.90;;;2.35;;
75007;SDS011;63554;48.940;12.050;2023-08-24T10:44:35;3.00;;;2.50;;
75007;SDS011;63554;48.940;12.050;2023-08-24T10:53:09;4.22;;;2.20;;
75007;SDS011;63554;48.940;12.050;2023-08-24T10:57:36;2.90;;;2.20;;
75007;SDS011;63554;48.940;12.050;2023-08-24T11:01:40;3.58;;;2.42;;
75007;SDS011;63554;48.940;12.050;2023-08-24T11:05:43;3.45;;;2.17;;
75007;SDS011;63554;48.940;12.050;2023-08-24T11:09:46;3.13;;;2.47;;
75007;SDS011;63554;48.940;12.050;2023-08-24T11:18:22;4.43;;;2.75;;
75007;SDS011;63554;48.940;12.050;2023-08-24T11:22:26;2.92;;;2.58;;
75007;SDS011;63554;48.940;12.050;2023-08-24T11:26:29;6.03;;;2.67;;
75007;SDS011;63554;48.940;12.050;2023-08-24T11:30:36;3.42;;;2.88;;
75007;SDS011;63554;48.940;12.050;2023-08-24T11:34:39;3.55;;;2.85;;
75007;SDS011;63554;48.940;12.050;2023-08-24T11:38:42;2.92;;;2.55;;
75007;SDS011;63554;48.940;12.050;2023-08-24T11:42:45;3.13;;;2.83;;
75007;SDS011;63554;48.940;12.050;2023-08-24T11:46:49;4.93;;;3.20;;
75007;SDS011;63554;48.940;12.050;2023-08-24T11:50:52;3.90;;;2.78;;
75007;SDS011;63554;48.940;12.050;2023-08-24T11:54:58;3.33;;;2.90;;
75007;SDS011;63554;48.940;12.050;2023-08-24T11:59:00;3.42;;;3.10;;
75007;SDS011;63554;48.940;12.050;2023-08-24T12:03:05;5.68;;;2.90;;
75007;SDS011;63554;48.940;12.050;2023-08-24T12:11:15;5.40;;;2.58;;
75007;SDS011;63554;48.940;12.050;2023-08-24T12:15:20;3.50;;;3.20;;
75007;SDS011;63554;48.940;12.050;2023-08-24T12:19:24;2.97;;;2.75;;
75007;SDS011;63554;48.940;12.050;2023-08-24T12:23:27;16.13;;;4.38;;
75007;SDS011;63554;48.940;12.050;2023-08-24T12:27:29;11.43;;;3.30;;
75007;SDS011;63554;48.940;12.050;2023-08-24T12:31:32;4.70;;;3.08;;
75007;SDS011;63554;48.940;12.050;2023-08-24T12:35:37;3.97;;;2.70;;
75007;SDS011;63554;48.940;12.050;2023-08-24T12:39:39;4.30;;;2.78;;
75007;SDS011;63554;48.940;12.050;2023-08-24T12:43:42;8.63;;;3.70;;
75007;SDS011;63554;48.940;12.050;2023-08-24T12:47:47;4.93;;;2.92;;
75007;SDS011;63554;48.940;12.050;2023-08-24T12:51:52;4.68;;;3.28;;
75007;SDS011;63554;48.940;12.050;2023-08-24T12:55:55;3.70;;;2.70;;
75007;SDS011;63554;48.940;12.050;2023-08-24T12:59:58;5.25;;;2.60;;
75007;SDS011;63554;48.940;12.050;2023-08-24T13:04:01;6.43;;;3.42;;
75007;SDS011;63554;48.940;12.050;2023-08-24T13:08:05;3.22;;;2.70;;
75007;SDS011;63554;48.940;12.050;2023-08-24T13:12:08;4.47;;;2.78;;
75007;SDS011;63554;48.940;12.050;2023-08-24T13:16:11;3.78;;;2.97;;
75007;SDS011;63554;48.940;12.050;2023-08-24T13:20:14;4.07;;;2.83;;
75007;SDS011;63554;48.940;12.050;2023-08-24T13:24:19;3.15;;;2.60;;
75007;SDS011;63554;48.940;12.050;2023-08-24T13:28:22;4.80;;;3.00;;
75007;SDS011;63554;48.940;12.050;2023-08-24T13:32:25;3.95;;;2.85;;
75007;SDS011;63554;48.940;12.050;2023-08-24T13:36:27;7.57;;;2.85;;
75007;SDS011;63554;48.940;12.050;2023-08-24T13:40:31;4.18;;;2.80;;
75007;SDS011;63554;48.940;12.050;2023-08-24T13:44:34;7.22;;;2.90;;
75007;SDS011;63554;48.940;12.050;2023-08-24T13:48:37;4.40;;;2.63;;
75007;SDS011;63554;48.940;12.050;2023-08-24T13:52:40;3.67;;;2.70;;
75007;SDS011;63554;48.940;12.050;2023-08-24T13:56:44;3.83;;;2.70;;
75007;SDS011;63554;48.940;12.050;2023-08-24T14:00:54;4.53;;;2.72;;
75007;SDS011;63554;48.940;12.050;2023-08-24T14:04:58;4.32;;;2.88;;
75007;SDS011;63554;48.940;12.050;2023-08-24T14:09:01;4.97;;;2.65;;
75007;SDS011;63554;48.940;12.050;2023-08-24T14:13:06;4.15;;;2.78;;
75007;SDS011;63554;48.940;12.050;2023-08-24T14:17:08;3.53;;;2.78;;
75007;SDS011;63554;48.940;12.050;2023-08-24T14:21:11;4.80;;;2.63;;
75007;SDS011;63554;48.940;12.050;2023-08-24T14:25:16;4.50;;;2.67;;
75007;SDS011;63554;48.940;12.050;2023-08-24T14:29:21;3.08;;;2.67;;
75007;SDS011;63554;48.940;12.050;2023-08-24T14:33:23;2.83;;;2.30;;
75007;SDS011;63554;48.940;12.050;2023-08-24T14:37:26;4.07;;;2.80;;
75007;SDS011;63554;48.940;12.050;2023-08-24T14:41:29;3.22;;;2.53;;
75007;SDS011;63554;48.940;12.050;2023-08-24T14:45:35;6.00;;;2.80;;
75007;SDS011;63554;48.940;12.050;2023-08-24T14:49:37;3.88;;;2.72;;
75007;SDS011;63554;48.940;12.050;2023-08-24T14:53:40;2.97;;;2.58;;
75007;SDS011;63554;48.940;12.050;2023-08-24T14:57:43;6.03;;;2.75;;
75007;SDS011;63554;48.940;12.050;2023-08-24T15:01:47;3.22;;;2.63;;
75007;SDS011;63554;48.940;12.050;2023-08-24T15:05:55;4.25;;;2.85;;
75007;SDS011;63554;48.940;12.050;2023-08-24T15:09:59;3.42;;;2.35;;
75007;SDS011;63554;48.940;12.050;2023-08-24T15:14:02;6.50;;;3.03;;
75007;SDS011;63554;48.940;12.050;2023-08-24T15:18:06;4.35;;;2.72;;
75007;SDS011;63554;48.940;12.050;2023-08-24T15:22:09;4.82;;;2.70;;
75007;SDS011;63554;48.940;12.050;2023-08-24T15:26:12;5.72;;;2.92;;
75007;SDS011;63554;48.940;12.050;2023-08-24T15:30:14;4.85;;;2.63;;
75007;SDS011;63554;48.940;12.050;2023-08-24T15:34:19;4.95;;;2.67;;
75007;SDS011;63554;48.940;12.050;2023-08-24T15:38:21;4.15;;;2.45;;
75007;SDS011;63554;48.940;12.050;2023-08-24T15:42:24;2.95;;;2.47;;
75007;SDS011;63554;48.940;12.050;2023-08-24T15:46:26;4.05;;;2.55;;
75007;SDS011;63554;48.940;12.050;2023-08-24T15:50:31;2.95;;;2.65;;
75007;SDS011;63554;48.940;12.050;2023-08-24T15:54:33;4.93;;;2.90;;
75007;SDS011;63554;48.940;12.050;2023-08-24T15:58:36;5.43;;;2.67;;
75007;SDS011;63554;48.940;12.050;2023-08-24T16:02:39;2.83;;;2.53;;
75007;SDS011;63554;48.940;12.050;2023-08-24T16:06:44;5.45;;;2.92;;
75007;SDS011;63554;48.940;12.050;2023-08-24T16:10:47;3.67;;;2.42;;
75007;SDS011;63554;48.940;12.050;2023-08-24T16:14:50;5.57;;;2.55;;
75007;SDS011;63554;48.940;12.050;2023-08-24T16:18:53;4.75;;;2.72;;
75007;SDS011;63554;48.940;12.050;2023-08-24T16:22:57;3.05;;;2.42;;
75007;SDS011;63554;48.940;12.050;2023-08-24T16:27:00;5.68;;;2.53;;
75007;SDS011;63554;48.940;12.050;2023-08-24T16:31:03;6.65;;;2.83;;
75007;SDS011;63554;48.940;12.050;2023-08-24T16:35:07;6.82;;;3.08;;
75007;SDS011;63554;48.940;12.050;2023-08-24T16:39:11;6.53;;;3.00;;
75007;SDS011;63554;48.940;12.050;2023-08-24T16:43:14;6.50;;;2.80;;
75007;SDS011;63554;48.940;12.050;2023-08-24T16:47:17;5.03;;;2.80;;
75007;SDS011;63554;48.940;12.050;2023-08-24T16:51:19;4.25;;;2.33;;
75007;SDS011;63554;48.940;12.050;2023-08-24T16:55:24;4.22;;;3.00;;
75007;SDS011;63554;48.940;12.050;2023-08-24T16:59:26;6.50;;;2.72;;
75007;SDS011;63554;48.940;12.050;2023-08-24T17:03:30;8.85;;;3.33;;
75007;SDS011;63554;48.940;12.050;2023-08-24T17:07:33;2.90;;;2.58;;
75007;SDS011;63554;48.940;12.050;2023-08-24T17:11:37;3.88;;;2.92;;
75007;SDS011;63554;48.940;12.050;2023-08-24T17:15:42;6.57;;;3.60;;
75007;SDS011;63554;48.940;12.050;2023-08-24T17:19:45;5.50;;;3.13;;
75007;SDS011;63554;48.940;12.050;2023-08-24T17:23:48;4.75;;;2.70;;
75007;SDS011;63554;48.940;12.050;2023-08-24T17:27:52;3.95;;;2.50;;
75007;SDS011;63554;48.940;12.050;2023-08-24T17:31:56;3.88;;;2.60;;
75007;SDS011;63554;48.940;12.050;2023-08-24T17:35:59;10.40;;;5.95;;
75007;SDS011;63554;48.940;12.050;2023-08-24T17:40:03;6.63;;;3.70;;
75007;SDS011;63554;48.940;12.050;2023-08-24T17:44:09;4.40;;;2.28;;
75007;SDS011;63554;48.940;12.050;2023-08-24T17:48:12;5.05;;;3.08;;
75007;SDS011;63554;48.940;12.050;2023-08-24T17:52:15;6.38;;;4.43;;
75007;SDS011;63554;48.940;12.050;2023-08-24T17:56:17;8.10;;;5.47;;
75007;SDS011;63554;48.940;12.050;2023-08-24T18:00:22;2.95;;;2.53;;
75007;SDS011;63554;48.940;12.050;2023-08-24T18:04:25;4.63;;;3.45;;
75007;SDS011;63554;48.940;12.050;2023-08-24T18:08:28;3.58;;;2.97;;
75007;SDS011;63554;48.940;12.050;2023-08-24T18:12:41;16.38;;;7.97;;
75007;SDS011;63554;48.940;12.050;2023-08-24T18:16:45;8.32;;;4.60;;
75007;SDS011;63554;48.940;12.050;2023-08-24T18:20:48;4.10;;;2.60;;
75007;SDS011;63554;48.940;12.050;2023-08-24T18:24:51;5.60;;;3.15;;
75007;SDS011;63554;48.940;12.050;2023-08-24T18:28:54;10.40;;;6.97;;
75007;SDS011;63554;48.940;12.050;2023-08-24T18:32:58;4.25;;;2.75;;
75007;SDS011;63554;48.940;12.050;2023-08-24T18:37:00;10.45;;;6.43;;
75007;SDS011;63554;48.940;12.050;2023-08-24T18:41:04;4.22;;;2.85;;
75007;SDS011;63554;48.940;12.050;2023-08-24T18:45:07;4.22;;;2.65;;
75007;SDS011;63554;48.940;12.050;2023-08-24T18:49:12;3.60;;;2.55;;
75007;SDS011;63554;48.940;12.050;2023-08-24T18:53:15;7.40;;;4.85;;
75007;SDS011;63554;48.940;12.050;2023-08-24T18:57:18;5.15;;;2.50;;
75007;SDS011;63554;48.940;12.050;2023-08-24T19:01:21;3.72;;;2.65;;
75007;SDS011;63554;48.940;12.050;2023-08-24T19:05:26;4.38;;;2.53;;
75007;SDS011;63554;48.940;12.050;2023-08-24T19:09:28;3.90;;;2.42;;
75007;SDS011;63554;48.940;12.050;2023-08-24T19:13:31;12.98;;;7.28;;
75007;SDS011;63554;48.940;12.050;2023-08-24T19:17:34;5.53;;;3.92;;
75007;SDS011;63554;48.940;12.050;2023-08-24T19:21:38;6.18;;;3.17;;
75007;SDS011;63554;48.940;12.050;2023-08-24T19:25:41;5.35;;;2.65;;
75007;SDS011;63554;48.940;12.050;2023-08-24T19:29:43;3.47;;;2.80;;
75007;SDS011;63554;48.940;12.050;2023-08-24T19:33:46;6.82;;;2.88;;
75007;SDS011;63554;48.940;12.050;2023-08-24T19:37:50;3.60;;;2.70;;
75007;SDS011;63554;48.940;12.050;2023-08-24T19:41:53;4.65;;;2.70;;
75007;SDS011;63554;48.940;12.050;2023-08-24T19:46:00;6.53;;;2.70;;
75007;SDS011;63554;48.940;12.050;2023-08-24T19:50:03;4.93;;;3.28;;
75007;SDS011;63554;48.940;12.050;2023-08-24T19:54:08;7.35;;;2.85;;
75007;SDS011;63554;48.940;12.050;2023-08-24T19:58:11;5.20;;;2.78;;
75007;SDS011;63554;48.940;12.050;2023-08-24T20:02:14;4.43;;;3.05;;
75007;SDS011;63554;48.940;12.050;2023-08-24T20:06:17;6.88;;;3.22;;
75007;SDS011;63554;48.940;12.050;2023-08-24T20:10:23;6.57;;;2.83;;
75007;SDS011;63554;48.940;12.050;2023-08-24T20:14:26;4.93;;;2.92;;
75007;SDS011;63554;48.940;12.050;2023-08-24T20:18:29;5.60;;;3.05;;
75007;SDS011;63554;48.940;12.050;2023-08-24T20:22:31;8.27;;;2.83;;
75007;SDS011;63554;48.940;12.050;2023-08-24T20:26:35;3.67;;;2.25;;
75007;SDS011;63554;48.940;12.050;2023-08-24T20:30:40;3.38;;;2.80;;
75007;SDS011;63554;48.940;12.050;2023-08-24T20:34:42;5.10;;;2.70;;
75007;SDS011;63554;48.940;12.050;2023-08-24T20:38:45;3.80;;;2.90;;
75007;SDS011;63554;48.940;12.050;2023-08-24T20:42:49;6.30;;;3.15;;
75007;SDS011;63554;48.940;12.050;2023-08-24T20:46:52;5.65;;;2.70;;
75007;SDS011;63554;48.940;12.050;2023-08-24T20:50:55;5.03;;;3.70;;
75007;SDS011;63554;48.940;12.050;2023-08-24T20:54:58;3.17;;;2.70;;
75007;SDS011;63554;48.940;12.050;2023-08-24T20:59:03;5.80;;;3.25;;
75007;SDS011;63554;48.940;12.050;2023-08-24T21:03:06;6.68;;;3.20;;
75007;SDS011;63554;48.940;12.050;2023-08-24T21:07:08;5.53;;;3.15;;
75007;SDS011;63554;48.940;12.050;2023-08-24T21:11:11;4.75;;;3.22;;
75007;SDS011;63554;48.940;12.050;2023-08-24T21:15:15;4.80;;;3.17;;
75007;SDS011;63554;48.940;12.050;2023-08-24T21:19:18;5.25;;;3.42;;
75007;SDS011;63554;48.940;12.050;2023-08-24T21:23:21;8.95;;;1.85;;
75007;SDS011;63554;48.940;12.050;2023-08-24T21:27:23;5.90;;;0.95;;
75007;SDS011;63554;48.940;12.050;2023-08-24T21:31:27;4.00;;;0.70;;
75007;SDS011;63554;48.940;12.050;2023-08-24T21:35:30;3.15;;;0.52;;
75007;SDS011;63554;48.940;12.050;2023-08-24T21:39:33;2.17;;;0.75;;
75007;SDS011;63554;48.940;12.050;2023-08-24T21:43:36;1.35;;;0.45;;
75007;SDS011;63554;48.940;12.050;2023-08-24T21:47:40;1.77;;;0.60;;
75007;SDS011;63554;48.940;12.050;2023-08-24T21:51:43;0.90;;;0.40;;
75007;SDS011;63554;48.940;12.050;2023-08-24T21:55:47;1.63;;;0.50;;
75007;SDS011;63554;48.940;12.050;2023-08-24T21:59:51;1.25;;;0.35;;
75007;SDS011;63554;48.940;12.050;2023-08-24T22:03:55;2.47;;;0.57;;
75007;SDS011;63554;48.940;12.050;2023-08-24T22:07:57;2.20;;;0.47;;
75007;SDS011;63554;48.940;12.050;2023-08-24T22:12:00;1.40;;;0.55;;
75007;SDS011;63554;48.940;12.050;2023-08-24T22:16:03;2.13;;;0.73;;
75007;SDS011;63554;48.940;12.050;2023-08-24T22:20:08;2.08;;;1.00;;
75007;SDS011;63554;48.940;12.050;2023-08-24T22:24:12;2.92;;;0.80;;
75007;SDS011;63554;48.940;12.050;2023-08-24T22:28:14;0.63;;;0.45;;
75007;SDS011;63554;48.940;12.050;2023-08-24T22:32:17;2.58;;;0.50;;
75007;SDS011;63554;48.940;12.050;2023-08-24T22:36:21;1.42;;;0.60;;
75007;SDS011;63554;48.940;12.050;2023-08-24T22:40:24;2.08;;;0.85;;
75007;SDS011;63554;48.940;12.050;2023-08-24T22:44:27;1.98;;;0.73;;
75007;SDS011;63554;48.940;12.050;2023-08-24T22:48:29;3.47;;;1.00;;
75007;SDS011;63554;48.940;12.050;2023-08-24T22:52:34;1.40;;;0.55;;
75007;SDS011;63554;48.940;12.050;2023-08-24T22:56:36;2.78;;;0.88;;
75007;SDS011;63554;48.940;12.050;2023-08-24T23:00:39;2.50;;;1.00;;
75007;SDS011;63554;48.940;12.050;2023-08-24T23:04:42;2.80;;;0.80;;
75007;SDS011;63554;48.940;12.050;2023-08-24T23:08:47;1.65;;;0.80;;
75007;SDS011;63554;48.940;12.050;2023-08-24T23:12:50;1.60;;;0.80;;
75007;SDS011;63554;48.940;12.050;2023-08-24T23:16:53;1.35;;;0.63;;
75007;SDS011;63554;48.940;12.050;2023-08-24T23:20:56;1.33;;;0.73;;
75007;SDS011;63554;48.940;12.050;2023-08-24T23:25:00;2.45;;;0.75;;
75007;SDS011;63554;48.940;12.050;2023-08-24T23:29:04;2.28;;;1.00;;
75007;SDS011;63554;48.940;12.050;2023-08-24T23:33:06;1.83;;;0.80;;
75007;SDS011;63554;48.940;12.050;2023-08-24T23:37:09;1.30;;;0.80;;
75007;SDS011;63554;48.940;12.050;2023-08-24T23:41:13;0.88;;;0.60;;
75007;SDS011;63554;48.940;12.050;2023-08-24T23:45:16;1.40;;;0.80;;
75007;SDS011;63554;48.940;12.050;2023-08-24T23:49:19;3.67;;;0.90;;
75007;SDS011;63554;48.940;12.050;2023-08-24T23:53:22;4.00;;;0.70;;
75007;SDS011;63554;48.940;12.050;2023-08-24T23:57:26;2.47;;;0.85;;
